Time;durP1;ratioP1;P1;durP2;ratioP2;P2;SDS_P1;SDS_P2;PMS_P1;PMS_P2;Temp;Humidity;BMP_temperature;BMP_pressure;BME280_temperature;BME280_humidity;BME280_pressure;Samples;Min_cycle;Max_cycle;Signal;HPM_P1;HPM_P2
2023/12/10 00:00:58;;;;;;;31.58;5.38;;;9.30;99.90;;;;;;5018978;28;20507;-71
2023/12/10 00:03:26;;;;;;;32.03;5.10;;;9.30;99.90;;;;;;5021469;28;20087;-71
2023/12/10 00:05:52;;;;;;;27.40;6.45;;;9.30;99.90;;;;;;5041598;28;20344;-71
2023/12/10 00:08:19;;;;;;;30.73;5.25;;;9.30;99.90;;;;;;5036207;28;20489;-70
2023/12/10 00:10:44;;;;;;;29.17;5.13;;;9.30;99.90;;;;;;5032302;28;20125;-70
2023/12/10 00:13:10;;;;;;;28.98;5.80;;;9.30;99.90;;;;;;5029412;28;20303;-71
2023/12/10 00:15:37;;;;;;;36.20;6.32;;;9.30;99.90;;;;;;5035584;28;20120;-71
2023/12/10 00:18:04;;;;;;;32.25;5.25;;;9.20;99.90;;;;;;5021548;28;20036;-72
2023/12/10 00:20:30;;;;;;;30.38;5.60;;;9.20;99.90;;;;;;5037693;28;20137;-70
2023/12/10 00:22:56;;;;;;;38.05;5.82;;;9.20;99.90;;;;;;5040211;28;20225;-71
2023/12/10 00:25:22;;;;;;;35.78;6.30;;;9.30;99.90;;;;;;5014840;28;20033;-72
2023/12/10 00:27:47;;;;;;;36.33;5.57;;;9.30;99.90;;;;;;5038466;28;20160;-72
2023/12/10 00:30:15;;;;;;;28.17;4.88;;;9.30;99.90;;;;;;5021850;28;20076;-72
2023/12/10 00:32:41;;;;;;;33.28;7.25;;;9.20;99.90;;;;;;5036845;28;21100;-70
2023/12/10 00:35:08;;;;;;;32.88;6.03;;;9.20;99.90;;;;;;5030600;28;20087;-71
2023/12/10 00:37:34;;;;;;;40.13;5.88;;;9.20;99.90;;;;;;5039359;28;20154;-71
2023/12/10 00:40:00;;;;;;;39.33;6.20;;;9.20;99.90;;;;;;5040007;28;20136;-71
2023/12/10 00:42:25;;;;;;;26.17;4.47;;;9.30;99.90;;;;;;5031211;28;20036;-71
2023/12/10 00:44:51;;;;;;;29.63;5.25;;;9.20;99.90;;;;;;5017441;28;20052;-71
2023/12/10 00:47:17;;;;;;;28.25;5.03;;;9.30;99.90;;;;;;5038593;28;20044;-72
2023/12/10 00:49:43;;;;;;;29.35;5.05;;;9.20;99.90;;;;;;5036547;28;20446;-71
2023/12/10 00:52:09;;;;;;;28.45;5.18;;;9.20;99.90;;;;;;5037678;28;20036;-72
2023/12/10 00:54:35;;;;;;;36.70;5.47;;;9.20;99.90;;;;;;5041719;28;20048;-71
2023/12/10 00:57:01;;;;;;;33.17;5.13;;;9.20;99.90;;;;;;5019202;28;20149;-72
2023/12/10 00:59:26;;;;;;;35.28;5.32;;;9.20;99.90;;;;;;5036596;28;20040;-71
2023/12/10 01:01:52;;;;;;;33.08;5.38;;;9.20;99.90;;;;;;5041850;28;20044;-72
2023/12/10 01:04:18;;;;;;;24.08;3.92;;;9.20;99.90;;;;;;5028485;28;20115;-71
2023/12/10 01:06:46;;;;;;;21.35;4.18;;;9.30;99.90;;;;;;5040281;28;20047;-71
2023/12/10 01:09:15;;;;;;;22.50;5.45;;;9.20;99.90;;;;;;5037847;28;20103;-71
2023/12/10 01:11:41;;;;;;;;;;;9.20;99.90;;;;;;5040165;28;20060;-70
2023/12/10 01:14:07;;;;;;;23.10;3.95;;;9.10;99.90;;;;;;5036447;28;19917;-72
2023/12/10 01:16:32;;;;;;;36.67;5.13;;;9.00;99.90;;;;;;5037016;28;20402;-72
2023/12/10 01:18:58;;;;;;;25.60;4.15;;;8.90;99.90;;;;;;5038819;28;20039;-71
2023/12/10 01:21:24;;;;;;;29.60;4.68;;;8.80;99.90;;;;;;5023267;28;20601;-71
2023/12/10 01:23:54;;;;;;;23.77;4.35;;;8.80;99.90;;;;;;5019296;28;20037;-72
2023/12/10 01:26:20;;;;;;;22.88;4.63;;;8.80;99.90;;;;;;5036528;28;20041;-71
2023/12/10 01:28:46;;;;;;;25.90;4.45;;;8.70;99.90;;;;;;5017544;28;20507;-72
2023/12/10 01:31:11;;;;;;;22.27;4.18;;;8.70;99.90;;;;;;5019097;28;20129;-72
2023/12/10 01:33:37;;;;;;;23.52;4.80;;;8.70;99.90;;;;;;5015400;28;20147;-70
2023/12/10 01:36:03;;;;;;;29.25;5.32;;;8.60;99.90;;;;;;5026142;28;20197;-72
2023/12/10 01:38:29;;;;;;;28.95;4.90;;;8.60;99.90;;;;;;5035444;28;20261;-72
2023/12/10 01:40:55;;;;;;;30.85;4.78;;;8.70;99.90;;;;;;5019624;28;20128;-72
2023/12/10 01:43:24;;;;;;;28.50;5.50;;;8.70;99.90;;;;;;5018443;28;20124;-72
2023/12/10 01:45:53;;;;;;;25.88;4.50;;;8.70;99.90;;;;;;5020016;28;20215;-72
2023/12/10 01:48:21;;;;;;;35.90;4.85;;;8.70;99.90;;;;;;5034239;28;20579;-73
2023/12/10 01:50:47;;;;;;;29.63;5.85;;;8.80;99.90;;;;;;5043759;28;20056;-72
2023/12/10 01:53:14;;;;;;;30.05;4.65;;;8.80;99.90;;;;;;5022301;28;20036;-73
2023/12/10 01:55:41;;;;;;;28.70;4.35;;;8.80;99.90;;;;;;5032433;28;20049;-71
2023/12/10 01:58:08;;;;;;;27.90;5.70;;;8.70;99.90;;;;;;5038001;28;20515;-74
2023/12/10 02:00:35;;;;;;;28.90;5.63;;;8.70;99.90;;;;;;5025791;28;20091;-73
2023/12/10 02:03:02;;;;;;;28.17;5.60;;;8.70;99.90;;;;;;5020815;28;20041;-73
2023/12/10 02:05:28;;;;;;;26.30;4.18;;;8.70;99.90;;;;;;5039170;28;20507;-73
2023/12/10 02:07:54;;;;;;;23.40;4.80;;;8.60;99.90;;;;;;5022455;28;20103;-73
2023/12/10 02:10:20;;;;;;;31.63;5.65;;;8.60;99.90;;;;;;5044070;28;20041;-73
2023/12/10 02:12:47;;;;;;;28.75;4.88;;;8.60;99.90;;;;;;5043997;28;20056;-71
2023/12/10 02:15:17;;;;;;;30.65;4.82;;;8.60;99.90;;;;;;5032180;28;20060;-73
2023/12/10 02:17:47;;;;;;;22.05;4.82;;;8.60;99.90;;;;;;5044755;28;20170;-71
2023/12/10 02:20:13;;;;;;;28.75;5.18;;;8.60;99.90;;;;;;5022405;28;20991;-72
2023/12/10 02:23:16;;;;;;;28.33;4.68;;;8.50;99.90;;;;;;5014673;28;20049;-72
2023/12/10 02:25:42;;;;;;;22.48;4.50;;;8.60;99.90;;;;;;5039207;28;20085;-70
2023/12/10 02:28:09;;;;;;;20.48;3.75;;;8.60;99.90;;;;;;5039961;28;20165;-72
2023/12/10 02:30:35;;;;;;;24.92;4.55;;;8.50;99.90;;;;;;5038863;28;20059;-71
2023/12/10 02:33:01;;;;;;;17.73;3.53;;;8.60;99.90;;;;;;5042230;28;20048;-71
2023/12/10 02:35:27;;;;;;;24.95;4.63;;;8.60;99.90;;;;;;5024506;28;20044;-71
2023/12/10 02:37:53;;;;;;;25.67;4.22;;;8.60;99.90;;;;;;5035109;28;20519;-71
2023/12/10 02:40:19;;;;;;;24.50;4.13;;;8.60;99.90;;;;;;5040892;28;20052;-71
2023/12/10 02:42:49;;;;;;;30.55;4.43;;;8.60;99.90;;;;;;5016546;28;20863;-72
2023/12/10 02:45:14;;;;;;;26.38;4.68;;;8.60;99.90;;;;;;5025906;28;20046;-71
2023/12/10 02:47:40;;;;;;;36.28;3.92;;;8.50;99.90;;;;;;5021215;28;20321;-71
2023/12/10 02:50:09;;;;;;;28.30;4.55;;;8.50;99.90;;;;;;5004772;28;21965;-71
2023/12/10 02:52:36;;;;;;;24.60;4.85;;;8.60;99.90;;;;;;5027977;28;20040;-69
2023/12/10 02:55:06;;;;;;;30.83;4.57;;;8.50;99.90;;;;;;5037006;28;21618;-70
2023/12/10 02:57:32;;;;;;;21.95;4.38;;;8.50;99.90;;;;;;5044479;28;20053;-72
2023/12/10 02:59:58;;;;;;;22.27;5.53;;;8.50;99.90;;;;;;5022738;28;20044;-70
2023/12/10 03:02:24;;;;;;;26.95;4.22;;;8.50;99.90;;;;;;5041932;28;20052;-72
2023/12/10 03:04:50;;;;;;;25.63;3.60;;;8.50;99.90;;;;;;5026549;28;20041;-70
2023/12/10 03:07:15;;;;;;;21.73;4.97;;;8.50;99.90;;;;;;5044692;28;20728;-72
2023/12/10 03:09:42;;;;;;;30.13;4.68;;;8.50;99.90;;;;;;5036297;28;20047;-72
2023/12/10 03:12:08;;;;;;;24.33;3.85;;;8.50;99.90;;;;;;5032531;28;20052;-73
2023/12/10 03:14:34;;;;;;;24.70;4.05;;;8.50;99.90;;;;;;5041142;28;20041;-71
2023/12/10 03:17:00;;;;;;;29.92;5.15;;;8.40;99.90;;;;;;5035372;28;20042;-72
2023/12/10 03:19:25;;;;;;;19.00;3.33;;;8.50;99.90;;;;;;5042727;28;20037;-70
2023/12/10 03:21:57;;;;;;;21.63;4.22;;;8.40;99.90;;;;;;5044048;28;20126;-70
2023/12/10 03:24:23;;;;;;;22.83;4.13;;;8.40;99.90;;;;;;5038516;28;20510;-72
2023/12/10 03:26:49;;;;;;;24.23;4.55;;;8.50;99.90;;;;;;5041262;28;20376;-70
2023/12/10 03:29:14;;;;;;;28.70;4.68;;;8.40;99.90;;;;;;5043381;28;20037;-72
2023/12/10 03:31:40;;;;;;;21.30;4.45;;;8.40;99.90;;;;;;5041165;28;20040;-72
2023/12/10 03:34:06;;;;;;;16.73;3.63;;;8.40;99.90;;;;;;5037406;28;20590;-73
2023/12/10 03:36:32;;;;;;;17.33;3.22;;;8.40;99.90;;;;;;5036978;28;20044;-73
2023/12/10 03:38:57;;;;;;;18.20;3.60;;;8.40;99.90;;;;;;5038941;28;20033;-74
2023/12/10 03:41:23;;;;;;;19.05;3.40;;;8.40;99.90;;;;;;5012201;28;20052;-73
2023/12/10 03:43:49;;;;;;;24.00;3.63;;;8.30;99.90;;;;;;5029754;28;20268;-72
2023/12/10 03:46:15;;;;;;;16.13;2.47;;;8.40;99.90;;;;;;5026921;28;20060;-72
2023/12/10 03:48:40;;;;;;;14.70;3.10;;;8.30;99.90;;;;;;5036815;28;20567;-71
2023/12/10 03:51:06;;;;;;;16.40;3.63;;;8.40;99.90;;;;;;5039164;28;20045;-72
2023/12/10 03:53:32;;;;;;;14.73;2.60;;;8.30;99.90;;;;;;5042036;28;20048;-72
2023/12/10 03:55:58;;;;;;;12.50;2.38;;;8.40;99.90;;;;;;5044490;28;20134;-72
2023/12/10 03:58:23;;;;;;;15.15;2.33;;;8.40;99.90;;;;;;5016858;28;20080;-72
2023/12/10 04:00:49;;;;;;;10.57;2.20;;;8.40;99.90;;;;;;5019591;28;20052;-70
2023/12/10 04:03:18;;;;;;;7.35;1.77;;;8.30;99.90;;;;;;5017650;28;20072;-73
2023/12/10 04:05:44;;;;;;;15.93;2.20;;;8.40;99.90;;;;;;5035559;28;20768;-72
2023/12/10 04:08:10;;;;;;;10.48;1.92;;;8.50;99.90;;;;;;5041533;28;20029;-71
2023/12/10 04:10:35;;;;;;;9.82;1.77;;;8.10;99.90;;;;;;5034877;28;20127;-71
2023/12/10 04:13:01;;;;;;;11.38;1.85;;;8.40;99.90;;;;;;5039554;28;20049;-73
2023/12/10 04:15:27;;;;;;;5.13;1.50;;;8.50;99.90;;;;;;5018410;28;20056;-71
2023/12/10 04:17:53;;;;;;;12.40;1.88;;;8.50;99.90;;;;;;5041199;28;20036;-70
2023/12/10 04:20:19;;;;;;;9.65;1.98;;;8.40;99.90;;;;;;5039393;28;20048;-71
2023/12/10 04:22:44;;;;;;;9.75;2.03;;;8.50;99.90;;;;;;5037920;28;20045;-71
2023/12/10 04:25:10;;;;;;;12.98;1.85;;;8.40;99.90;;;;;;5041210;28;20336;-70
2023/12/10 04:27:36;;;;;;;9.10;1.80;;;8.40;99.90;;;;;;5023636;28;20047;-70
2023/12/10 04:30:02;;;;;;;16.95;2.20;;;8.60;99.90;;;;;;5038462;28;20586;-70
2023/12/10 04:32:28;;;;;;;12.40;1.80;;;8.50;99.90;;;;;;5035579;28;20091;-70
2023/12/10 04:34:53;;;;;;;10.82;1.67;;;8.60;99.90;;;;;;5041342;28;20166;-72
2023/12/10 04:37:19;;;;;;;6.47;1.52;;;8.50;99.90;;;;;;5038871;28;20052;-69
2023/12/10 04:39:46;;;;;;;7.90;1.80;;;8.60;99.90;;;;;;5052435;28;20067;-71
2023/12/10 04:42:12;;;;;;;13.45;2.45;;;8.60;99.90;;;;;;5041050;28;20084;-73
2023/12/10 04:44:37;;;;;;;12.93;2.42;;;8.80;99.90;;;;;;5041892;28;20154;-69
2023/12/10 04:47:03;;;;;;;14.95;2.00;;;8.70;99.90;;;;;;5035956;28;20076;-70
2023/12/10 04:49:29;;;;;;;17.25;2.83;;;8.80;99.90;;;;;;5050564;28;20295;-70
2023/12/10 04:51:55;;;;;;;14.75;2.30;;;8.80;99.90;;;;;;5025712;28;20048;-71
2023/12/10 04:54:20;;;;;;;17.98;3.35;;;8.90;99.90;;;;;;5043454;28;20358;-70
2023/12/10 04:56:46;;;;;;;16.38;3.40;;;8.90;99.90;;;;;;5030340;28;20412;-71
2023/12/10 05:02:53;;;;;;;11.32;2.88;;;9.00;99.90;;;;;;5022097;22;20203;-68
2023/12/10 05:05:18;;;;;;;13.55;2.45;;;9.00;99.90;;;;;;5018180;28;20504;-69
2023/12/10 05:07:45;;;;;;;18.00;2.30;;;8.90;99.90;;;;;;5019446;28;20499;-70
2023/12/10 05:10:11;;;;;;;15.45;2.97;;;9.00;99.90;;;;;;5019006;28;20084;-69
2023/12/10 05:12:37;;;;;;;17.08;2.90;;;8.80;99.90;;;;;;5016224;28;20049;-69
2023/12/10 05:15:03;;;;;;;19.50;3.33;;;9.00;99.90;;;;;;5015780;28;20033;-70
2023/12/10 05:17:29;;;;;;;13.50;3.05;;;9.10;99.90;;;;;;5022383;28;20631;-70
2023/12/10 05:19:54;;;;;;;21.67;2.92;;;9.00;99.90;;;;;;4999678;28;20144;-70
2023/12/10 05:22:20;;;;;;;11.20;2.20;;;8.90;99.90;;;;;;5018724;28;20112;-69
2023/12/10 05:24:46;;;;;;;14.68;2.53;;;9.10;99.90;;;;;;5019152;28;20388;-69
2023/12/10 05:27:13;;;;;;;10.52;1.67;;;9.10;99.90;;;;;;5020646;28;20037;-68
2023/12/10 05:29:39;;;;;;;11.65;2.33;;;9.10;99.90;;;;;;5019013;28;20571;-68
2023/12/10 05:32:05;;;;;;;10.88;1.98;;;9.00;99.90;;;;;;5022153;28;20116;-69
2023/12/10 05:34:31;;;;;;;12.82;2.20;;;9.10;99.90;;;;;;5020720;28;20046;-70
2023/12/10 05:36:57;;;;;;;10.15;2.42;;;9.10;99.90;;;;;;5018248;28;20040;-71
2023/12/10 05:39:24;;;;;;;9.40;1.90;;;9.00;99.90;;;;;;5018244;28;20038;-69
2023/12/10 05:41:49;;;;;;;6.03;1.42;;;9.00;99.90;;;;;;5012527;28;20645;-70
2023/12/10 05:44:15;;;;;;;14.10;2.08;;;9.10;99.90;;;;;;5021965;28;20038;-70
2023/12/10 05:46:41;;;;;;;6.28;1.90;;;9.00;99.90;;;;;;5018807;28;20044;-71
2023/12/10 05:49:07;;;;;;;6.43;1.48;;;9.00;99.90;;;;;;5019504;28;20362;-71
2023/12/10 05:51:32;;;;;;;9.50;1.80;;;9.00;99.90;;;;;;5013419;28;20049;-70
2023/12/10 05:53:58;;;;;;;7.32;1.65;;;9.00;99.90;;;;;;5019683;28;20034;-70
2023/12/10 05:56:24;;;;;;;4.95;1.45;;;9.00;99.90;;;;;;5019211;28;20551;-72
2023/12/10 05:58:50;;;;;;;8.02;1.38;;;9.00;99.90;;;;;;5001265;28;20483;-70
2023/12/10 06:01:16;;;;;;;9.52;1.70;;;9.00;99.90;;;;;;5019955;28;20591;-71
2023/12/10 06:03:41;;;;;;;7.15;1.83;;;9.00;99.90;;;;;;4984545;28;20045;-71
2023/12/10 06:06:07;;;;;;;8.15;1.77;;;9.00;99.90;;;;;;4995060;28;20045;-72
2023/12/10 06:08:33;;;;;;;5.95;1.65;;;9.10;99.90;;;;;;5016322;28;20037;-70
2023/12/10 06:10:59;;;;;;;10.02;1.83;;;9.00;99.90;;;;;;4995823;28;20518;-73
2023/12/10 06:13:27;;;;;;;13.73;2.25;;;9.00;99.90;;;;;;4997704;28;20045;-71
2023/12/10 06:15:54;;;;;;;13.02;2.28;;;9.00;99.90;;;;;;5007072;28;20475;-72
2023/12/10 06:18:21;;;;;;;17.33;2.42;;;9.10;99.90;;;;;;5015491;28;20076;-71
2023/12/10 06:20:46;;;;;;;18.85;2.42;;;9.00;99.90;;;;;;5015750;28;20444;-72
2023/12/10 06:23:12;;;;;;;13.13;2.78;;;9.00;99.90;;;;;;4995770;28;20101;-73
2023/12/10 06:25:38;;;;;;;13.30;2.92;;;9.10;99.90;;;;;;5011894;28;20107;-69
2023/12/10 06:28:04;;;;;;;9.32;2.20;;;9.10;99.90;;;;;;5000337;28;20052;-72
2023/12/10 06:30:30;;;;;;;20.77;3.45;;;9.10;99.90;;;;;;4998702;28;20060;-73
2023/12/10 06:32:56;;;;;;;17.35;3.17;;;9.00;99.90;;;;;;5019888;28;20033;-73
2023/12/10 06:35:22;;;;;;;17.63;2.92;;;9.10;99.90;;;;;;5001262;28;20052;-70
2023/12/10 06:37:48;;;;;;;24.38;3.42;;;9.10;99.90;;;;;;5001679;28;20045;-73
2023/12/10 06:40:14;;;;;;;19.75;3.85;;;9.20;99.90;;;;;;4999058;28;20038;-74
2023/12/10 06:42:40;;;;;;;26.80;4.55;;;9.10;99.90;;;;;;5013888;28;20736;-72
2023/12/10 06:45:07;;;;;;;20.45;3.00;;;9.20;99.90;;;;;;5019405;28;20072;-72
2023/12/10 06:47:33;;;;;;;19.83;2.88;;;9.20;99.90;;;;;;4998655;28;20049;-71
2023/12/10 06:50:00;;;;;;;19.65;3.22;;;9.10;99.90;;;;;;4999524;28;20099;-71
2023/12/10 06:52:26;;;;;;;15.40;2.65;;;9.10;99.90;;;;;;5015945;28;20034;-71
2023/12/10 06:54:52;;;;;;;13.82;3.10;;;9.10;99.90;;;;;;4988165;28;20530;-72
2023/12/10 06:57:18;;;;;;;21.17;2.60;;;9.10;99.90;;;;;;4998796;28;20041;-74
2023/12/10 06:59:43;;;;;;;15.98;3.13;;;9.00;99.90;;;;;;4998153;28;20043;-70
2023/12/10 07:02:09;;;;;;;23.40;3.35;;;9.00;99.90;;;;;;5015016;28;20073;-70
2023/12/10 07:04:36;;;;;;;22.23;3.25;;;8.90;99.90;;;;;;5019764;28;20389;-71
2023/12/10 07:07:02;;;;;;;17.02;2.72;;;8.90;99.90;;;;;;5018025;28;20044;-70
2023/12/10 07:09:28;;;;;;;18.05;3.03;;;9.00;99.90;;;;;;5015062;28;20044;-74
2023/12/10 07:11:53;;;;;;;23.15;2.80;;;9.00;99.90;;;;;;5019228;28;20041;-71
2023/12/10 07:14:19;;;;;;;20.52;4.40;;;9.10;99.90;;;;;;5015639;28;20156;-71
2023/12/10 07:16:45;;;;;;;13.80;2.75;;;9.00;99.90;;;;;;5016329;28;20080;-71
2023/12/10 07:19:11;;;;;;;12.27;2.20;;;9.10;99.90;;;;;;5015217;28;20034;-72
2023/12/10 07:21:37;;;;;;;14.18;2.42;;;9.20;99.90;;;;;;5017983;28;20825;-72
2023/12/10 07:24:04;;;;;;;11.65;2.53;;;9.20;99.90;;;;;;4999878;28;20052;-73
2023/12/10 07:26:30;;;;;;;22.00;2.75;;;9.20;99.90;;;;;;5018136;28;20056;-71
2023/12/10 07:28:56;;;;;;;12.73;2.17;;;9.20;99.90;;;;;;5016999;28;20567;-72
2023/12/10 07:31:22;;;;;;;15.25;2.60;;;9.20;99.90;;;;;;4993373;28;20064;-72
2023/12/10 07:33:48;;;;;;;14.40;2.22;;;9.20;99.90;;;;;;5009417;28;20110;-71
2023/12/10 07:36:14;;;;;;;16.95;2.53;;;9.20;99.90;;;;;;4993201;28;20056;-73
2023/12/10 07:38:40;;;;;;;13.80;1.83;;;9.20;99.90;;;;;;5013193;28;20049;-72
2023/12/10 07:41:06;;;;;;;14.73;1.90;;;9.20;99.90;;;;;;5016826;28;20038;-72
2023/12/10 07:43:32;;;;;;;14.75;2.15;;;9.20;99.90;;;;;;4996682;28;20094;-72
2023/12/10 07:45:58;;;;;;;10.57;1.88;;;9.20;99.90;;;;;;4998060;28;20077;-71
2023/12/10 07:48:27;;;;;;;10.57;1.85;;;9.20;99.90;;;;;;5015088;28;20037;-72
2023/12/10 07:50:53;;;;;;;18.80;2.30;;;9.20;99.90;;;;;;5016350;28;20047;-73
2023/12/10 07:53:19;;;;;;;14.15;2.03;;;9.30;99.90;;;;;;4976885;28;20045;-71
2023/12/10 07:55:45;;;;;;;12.23;2.10;;;9.20;99.90;;;;;;5014547;28;20048;-69
2023/12/10 07:58:11;;;;;;;12.65;2.10;;;9.20;99.90;;;;;;5016061;28;20037;-69
2023/12/10 08:00:38;;;;;;;16.73;3.42;;;9.20;99.90;;;;;;4997698;28;20060;-72
2023/12/10 08:03:05;;;;;;;16.55;2.55;;;9.10;99.90;;;;;;5018663;28;20495;-72
2023/12/10 08:05:31;;;;;;;18.63;2.25;;;9.20;99.90;;;;;;5013361;28;21390;-71
2023/12/10 08:08:02;;;;;;;14.68;2.17;;;9.20;99.90;;;;;;5014283;28;20176;-71
2023/12/10 08:10:28;;;;;;;15.10;2.13;;;9.20;99.90;;;;;;5016048;28;20504;-73
2023/12/10 08:12:54;;;;;;;11.65;2.15;;;9.20;99.90;;;;;;4995861;28;20567;-71
2023/12/10 08:15:21;;;;;;;11.25;2.03;;;9.30;99.90;;;;;;5016357;28;20041;-73
2023/12/10 08:17:47;;;;;;;10.73;1.83;;;9.20;99.90;;;;;;4997839;28;20439;-72
2023/12/10 08:20:13;;;;;;;11.82;2.10;;;9.20;99.90;;;;;;5017860;28;20060;-72
2023/12/10 08:22:39;;;;;;;11.10;2.20;;;9.20;99.90;;;;;;5017014;28;20156;-73
2023/12/10 08:25:06;;;;;;;9.10;1.55;;;9.20;99.90;;;;;;5008273;28;20269;-73
2023/12/10 08:27:31;;;;;;;14.52;2.15;;;9.20;99.90;;;;;;5004469;28;20645;-72
2023/12/10 08:29:57;;;;;;;11.00;1.92;;;9.20;99.90;;;;;;5004145;28;20037;-70
2023/12/10 08:32:23;;;;;;;12.25;2.10;;;9.30;99.90;;;;;;5005225;28;20032;-71
2023/12/10 08:34:49;;;;;;;14.77;2.72;;;9.20;99.90;;;;;;5003582;28;20353;-71
2023/12/10 08:37:14;;;;;;;18.08;3.15;;;9.10;99.90;;;;;;4988657;28;20497;-74
2023/12/10 08:39:42;;;;;;;25.73;2.85;;;9.10;99.90;;;;;;4984887;28;20100;-68
2023/12/10 08:42:08;;;;;;;12.60;2.30;;;9.10;99.90;;;;;;5003210;28;20048;-70
2023/12/10 08:44:34;;;;;;;15.35;2.28;;;9.10;99.90;;;;;;5004396;28;20411;-72
2023/12/10 08:47:00;;;;;;;12.07;2.88;;;9.10;99.90;;;;;;5003516;28;20614;-71
2023/12/10 08:49:28;;;;;;;11.35;2.15;;;9.10;99.90;;;;;;4985981;28;20284;-70
2023/12/10 08:51:54;;;;;;;9.82;1.65;;;9.20;99.90;;;;;;4984966;28;20042;-70
2023/12/10 08:54:20;;;;;;;10.85;1.88;;;9.10;99.90;;;;;;5002202;28;21233;-71
2023/12/10 08:56:48;;;;;;;18.20;3.65;;;9.10;99.90;;;;;;5002390;28;20053;-72
2023/12/10 08:59:14;;;;;;;19.70;3.30;;;9.10;99.90;;;;;;5002954;28;20486;-71
2023/12/10 09:01:43;;;;;;;22.35;3.17;;;9.10;99.90;;;;;;4984621;28;20048;-69
2023/12/10 09:04:09;;;;;;;26.23;3.97;;;9.10;99.90;;;;;;4995343;28;20051;-70
2023/12/10 09:06:34;;;;;;;24.85;4.22;;;9.10;99.90;;;;;;5017392;28;20037;-69
2023/12/10 09:09:00;;;;;;;26.60;4.28;;;9.20;99.90;;;;;;5016470;28;20325;-71
2023/12/10 09:11:26;;;;;;;26.17;4.47;;;9.20;99.90;;;;;;5001186;28;20045;-72
2023/12/10 09:13:52;;;;;;;20.83;3.83;;;9.20;99.90;;;;;;5018089;28;20148;-70
2023/12/10 09:16:20;;;;;;;20.60;3.80;;;9.20;99.90;;;;;;4996551;28;20109;-69
2023/12/10 09:18:45;;;;;;;25.00;3.40;;;9.20;99.90;;;;;;5014728;28;20480;-72
2023/12/10 09:21:11;;;;;;;22.90;3.92;;;9.30;99.90;;;;;;5018305;28;20043;-72
2023/12/10 09:23:37;;;;;;;24.52;3.53;;;9.20;99.90;;;;;;5000124;28;20046;-71
2023/12/10 09:26:03;;;;;;;21.25;4.95;;;9.20;99.90;;;;;;5020038;28;20045;-72
2023/12/10 09:28:29;;;;;;;16.77;2.75;;;9.20;99.90;;;;;;5000594;28;20445;-71
2023/12/10 09:30:54;;;;;;;23.00;3.78;;;9.20;99.90;;;;;;5000278;28;20648;-73
2023/12/10 09:33:20;;;;;;;17.90;3.42;;;9.20;99.90;;;;;;4999209;28;20475;-72
2023/12/10 09:35:46;;;;;;;20.13;2.67;;;9.20;99.90;;;;;;5017995;28;20736;-70
2023/12/10 09:38:12;;;;;;;17.13;3.28;;;9.20;99.90;;;;;;5018506;28;20219;-72
2023/12/10 09:40:38;;;;;;;13.95;2.83;;;9.20;99.90;;;;;;5018578;28;20144;-70
2023/12/10 09:43:05;;;;;;;16.55;2.95;;;9.20;99.90;;;;;;5018400;28;20080;-71
2023/12/10 09:45:32;;;;;;;22.13;2.42;;;9.20;99.90;;;;;;5018161;28;20572;-72
2023/12/10 09:47:59;;;;;;;21.35;3.10;;;9.20;99.90;;;;;;5018328;28;20143;-72
2023/12/10 09:50:25;;;;;;;16.30;2.78;;;9.20;99.90;;;;;;5017087;28;20060;-73
2023/12/10 09:52:51;;;;;;;18.98;3.08;;;9.10;99.90;;;;;;5000557;28;20474;-73
2023/12/10 09:55:17;;;;;;;15.63;2.83;;;9.20;99.90;;;;;;5017068;28;20044;-72
2023/12/10 09:57:43;;;;;;;20.17;3.20;;;9.20;99.90;;;;;;5021402;28;20041;-72
2023/12/10 10:00:10;;;;;;;22.42;4.18;;;9.20;99.90;;;;;;5017250;28;20582;-69
2023/12/10 10:02:36;;;;;;;19.63;3.15;;;9.30;99.90;;;;;;5013732;28;20238;-72
2023/12/10 10:05:03;;;;;;;14.23;2.45;;;9.30;99.90;;;;;;5022538;28;20567;-73
2023/12/10 10:07:30;;;;;;;20.52;3.97;;;9.20;99.90;;;;;;5003427;28;20049;-71
2023/12/10 10:09:55;;;;;;;12.38;2.50;;;9.30;99.90;;;;;;5001855;28;20535;-72
2023/12/10 10:12:21;;;;;;;21.35;3.72;;;9.30;99.90;;;;;;5021607;28;20056;-71
2023/12/10 10:14:57;;;;;;;18.83;3.08;;;9.20;99.90;;;;;;5003357;28;20076;-72
2023/12/10 10:17:31;;;;;;;19.15;3.70;;;9.20;99.90;;;;;;5004194;28;20107;-71
2023/12/10 10:19:58;;;;;;;23.40;3.72;;;9.30;99.90;;;;;;5026862;28;20124;-71
2023/12/10 10:22:25;;;;;;;23.77;4.25;;;9.20;99.90;;;;;;5020778;28;20540;-70
2023/12/10 10:24:52;;;;;;;17.30;4.32;;;9.20;99.90;;;;;;5021052;28;20160;-69
2023/12/10 10:27:18;;;;;;;24.70;3.58;;;9.20;99.90;;;;;;5019289;28;20092;-71
2023/12/10 10:29:44;;;;;;;20.38;3.85;;;9.20;99.90;;;;;;5020287;28;20038;-71
2023/12/10 10:32:15;;;;;;;27.23;4.53;;;9.30;99.90;;;;;;5021891;28;20348;-70
2023/12/10 10:34:44;;;;;;;27.65;4.63;;;9.20;99.90;;;;;;5020146;28;20040;-72
2023/12/10 10:37:10;;;;;;;28.10;4.65;;;9.20;99.90;;;;;;5021625;28;20267;-71
2023/12/10 10:39:36;;;;;;;27.55;4.25;;;9.20;99.90;;;;;;5019012;28;20431;-71
2023/12/10 10:42:08;;;;;;;25.85;4.03;;;9.20;99.90;;;;;;5001255;28;20048;-70
2023/12/10 10:44:43;;;;;;;26.15;5.30;;;9.20;99.90;;;;;;5020274;28;20048;-70
2023/12/10 10:47:09;;;;;;;34.55;5.45;;;9.30;99.90;;;;;;5011324;28;20037;-69
2023/12/10 10:49:38;;;;;;;32.63;5.40;;;9.20;99.90;;;;;;5001447;28;20510;-69
2023/12/10 10:52:08;;;;;;;29.63;5.93;;;9.30;99.90;;;;;;4998377;28;20049;-71
2023/12/10 10:54:35;;;;;;;38.78;5.88;;;9.30;99.90;;;;;;5021609;28;20048;-71
2023/12/10 10:57:01;;;;;;;31.95;4.95;;;9.30;99.90;;;;;;5018894;28;20466;-71
2023/12/10 10:59:34;;;;;;;41.20;6.50;;;9.40;99.90;;;;;;5020121;28;20568;-72
2023/12/10 11:02:01;;;;;;;34.63;6.07;;;9.30;99.90;;;;;;5003010;28;20144;-71
2023/12/10 11:04:49;;;;;;;34.75;4.97;;;9.40;99.90;;;;;;5020963;28;20951;-67
2023/12/10 11:07:15;;;;;;;28.48;5.05;;;9.40;99.90;;;;;;5019077;28;20041;-67
2023/12/10 11:09:56;;;;;;;37.70;5.15;;;9.40;99.90;;;;;;5017983;28;20500;-67
2023/12/10 11:12:44;;;;;;;40.92;6.47;;;9.40;99.90;;;;;;5016851;28;20084;-67
2023/12/10 11:15:13;;;;;;;29.98;5.55;;;9.40;99.90;;;;;;5021800;28;20045;-68
2023/12/10 11:17:52;;;;;;;34.40;5.55;;;9.40;99.90;;;;;;5019420;28;20045;-68
2023/12/10 11:20:38;;;;;;;30.42;5.00;;;9.40;99.90;;;;;;5003661;28;20256;-68
2023/12/10 11:23:06;;;;;;;31.80;6.82;;;9.40;99.90;;;;;;5020614;28;20037;-68
2023/12/10 11:25:32;;;;;;;40.83;6.38;;;9.40;99.90;;;;;;5020511;28;20049;-68
2023/12/10 11:28:01;;;;;;;34.67;5.75;;;9.30;99.90;;;;;;5021566;28;20045;-66
2023/12/10 11:30:27;;;;;;;43.92;5.75;;;9.40;99.90;;;;;;5019170;28;20041;-68
2023/12/10 11:32:54;;;;;;;41.25;6.00;;;9.40;99.90;;;;;;5019023;28;20116;-68
2023/12/10 11:35:20;;;;;;;29.63;5.35;;;9.40;99.90;;;;;;5013703;28;20052;-67
2023/12/10 11:37:46;;;;;;;32.42;4.85;;;9.40;99.90;;;;;;5018270;28;20146;-68
2023/12/10 11:40:12;;;;;;;26.83;5.63;;;9.50;99.90;;;;;;5013984;28;20076;-67
2023/12/10 11:42:38;;;;;;;34.72;6.22;;;9.50;99.90;;;;;;4993510;28;20037;-67
2023/12/10 11:45:04;;;;;;;35.13;5.82;;;9.50;99.90;;;;;;4998668;28;20029;-68
2023/12/10 11:47:30;;;;;;;35.95;5.80;;;9.50;99.90;;;;;;5020180;28;20039;-68
2023/12/10 11:49:56;;;;;;;37.15;5.88;;;9.40;99.90;;;;;;5018992;28;20416;-68
2023/12/10 11:52:22;;;;;;;28.58;5.60;;;9.40;99.90;;;;;;5020375;28;20029;-66
2023/12/10 11:54:49;;;;;;;41.03;6.28;;;9.40;99.90;;;;;;5019490;28;20044;-67
2023/12/10 11:57:15;;;;;;;36.60;5.65;;;9.40;99.90;;;;;;5020806;28;20390;-68
2023/12/10 11:59:43;;;;;;;42.47;6.53;;;9.40;99.90;;;;;;5019359;28;20156;-68
2023/12/10 12:02:09;;;;;;;36.55;5.80;;;9.40;99.90;;;;;;5020132;28;20512;-67
2023/12/10 12:04:35;;;;;;;38.30;6.10;;;9.40;99.90;;;;;;5020535;28;20081;-68
2023/12/10 12:07:01;;;;;;;33.33;6.30;;;9.40;99.90;;;;;;5018534;28;20562;-69
2023/12/10 12:09:26;;;;;;;32.95;5.55;;;9.40;99.90;;;;;;5017729;28;20041;-69
2023/12/10 12:11:52;;;;;;;41.13;5.88;;;9.50;99.90;;;;;;5018703;28;20041;-69
2023/12/10 12:14:19;;;;;;;38.35;6.15;;;9.50;99.90;;;;;;5019505;28;20041;-69
2023/12/10 12:16:48;;;;;;;38.80;6.55;;;9.40;99.90;;;;;;5019838;28;20575;-68
2023/12/10 12:19:29;;;;;;;31.58;6.22;;;9.30;99.90;;;;;;5018875;28;20072;-69
2023/12/10 12:21:58;;;;;;;35.28;6.38;;;9.30;99.90;;;;;;5018299;28;20630;-69
2023/12/10 12:24:24;;;;;;;46.55;7.22;;;9.30;99.90;;;;;;5017445;28;20037;-68
2023/12/10 12:26:51;;;;;;;32.25;6.50;;;9.40;99.90;;;;;;5019713;28;20325;-68
2023/12/10 12:29:17;;;;;;;39.35;6.68;;;9.30;99.90;;;;;;5016959;28;20037;-69
2023/12/10 12:31:43;;;;;;;36.83;5.68;;;9.30;99.90;;;;;;5016341;28;20566;-69
2023/12/10 12:34:09;;;;;;;39.80;6.90;;;9.40;99.90;;;;;;5018737;28;20103;-69
2023/12/10 12:36:35;;;;;;;41.90;5.95;;;9.40;99.90;;;;;;5019169;28;20049;-69
2023/12/10 12:39:03;;;;;;;33.75;6.97;;;9.30;99.90;;;;;;5016734;28;20045;-69
2023/12/10 12:41:29;;;;;;;44.92;8.15;;;9.50;99.90;;;;;;5018877;28;20130;-69
2023/12/10 12:43:56;;;;;;;34.60;5.85;;;9.50;99.90;;;;;;5013037;28;20041;-68
2023/12/10 12:46:22;;;;;;;37.00;6.00;;;9.50;99.90;;;;;;5017690;28;20037;-69
2023/12/10 12:48:49;;;;;;;34.38;6.25;;;9.50;99.90;;;;;;5015255;28;20044;-69